MSC Orchestra — 3EJF3 — position and weather

sailwx.info

Track history (hours):
 
Tides and Currents Weather Stations Pressure Air Temp Water Temp Dewpoint Dewpoint Depression Visibility Wind Speed Wind Dir Waves Ship Positions

MSC Orchestra

Last reported at 2015-Jul-05 21:32 UTC. Time now 2015-Jul-06 11:19 UTC.
Position N 59°11' E 004°11'.

Length 294 m; draft 7.7 m.

Type: Ship. MMSI: 372497000.

Date/timePositionNaut miles runAvg speedWind from/ knotsBaromVisibWave heightAir tempDewpointWater temp
2015-Jul-05 21:32N 59°11' E 004°11'1414.7
2015-Jul-05 20:33N 58°57' E 004°16'1615.6
2015-Jul-05 19:33N 58°46' E 004°37'1615.7
2015-Jul-05 18:33N 58°35' E 004°58'1717.3
2015-Jul-05 17:33N 58°22' E 005°21'1818.0
2015-Jul-05 16:33N 58°10' E 005°47'1818.1
2015-Jul-05 15:33N 57°58' E 006°13'10717.3
2015-Jul-05 09:23N 57°48' E 009°33'1517.5
2015-Jul-05 08:33N 57°48' E 010°00'1818.2
2015-Jul-05 07:33N 57°49' E 010°34'1817.5
2015-Jul-05 06:33N 57°40' E 011°02'1918.7
2015-Jul-05 05:33N 57°27' E 011°27'1918.7
2015-Jul-05 04:34N 57°09' E 011°38'1818.4
2015-Jul-05 03:33N 56°52' E 011°50'1716.7
2015-Jul-05 02:33N 56°36' E 011°43'1818.2
2015-Jul-05 01:34N 56°20' E 011°26'1817.8
2015-Jul-05 00:33N 56°05' E 011°08'1818.1
2015-Jul-04 23:34N 55°50' E 010°50'1818.0
2015-Jul-04 22:33N 55°32' E 010°52'1818.2
2015-Jul-04 21:34N 55°16' E 011°05'1817.6
2015-Jul-04 20:34N 54°58' E 011°00'1717.1
2015-Jul-04 19:33N 54°42' E 010°53'1716.7
2015-Jul-04 18:33N 54°32' E 010°29'1312.8
2015-Jul-04 17:33N 54°24' E 010°12'4 3.9
2015-Jul-04 16:31N 54°20' E 010°10'0 0.0
2015-Jul-04 15:31N 54°20' E 010°10'0 0.0
2015-Jul-04 14:33N 54°20' E 010°10'0 0.0
2015-Jul-04 13:33N 54°20' E 010°10'0 0.0
2015-Jul-04 12:32N 54°20' E 010°10'0 0.0
2015-Jul-04 11:32N 54°20' E 010°10'0 0.0
2015-Jul-04 10:31N 54°20' E 010°10'0 0.0
2015-Jul-04 09:31N 54°20' E 010°10'0 0.0
2015-Jul-04 08:33N 54°20' E 010°10'0 0.0
2015-Jul-04 07:33N 54°20' E 010°10'0 0.0
2015-Jul-04 06:33N 54°20' E 010°10'0 0.0
2015-Jul-04 05:32N 54°20' E 010°10'0 0.0
2015-Jul-04 04:34N 54°20' E 010°10'8 8.4
2015-Jul-04 03:33N 54°28' E 010°15'1414.4
2015-Jul-04 02:33N 54°34' E 010°38'1515.1
2015-Jul-04 01:33N 54°36' E 011°04'1514.8
2015-Jul-04 00:33N 54°31' E 011°27'1515.2
2015-Jul-03 23:33N 54°26' E 011°52'1312.9
2015-Jul-03 22:33N 54°31' E 012°12'1414.1
2015-Jul-03 21:33N 54°42' E 012°28'1514.9
2015-Jul-03 20:33N 54°49' E 012°51'1515.0
2015-Jul-03 19:33N 54°54' E 013°15'1515.0
2015-Jul-03 18:33N 54°59' E 013°40'1514.8
2015-Jul-03 17:33N 55°04' E 014°04'1716.7
2015-Jul-03 16:34N 55°17' E 014°22'1918.5
2015-Jul-03 15:33N 55°30' E 014°47'1818.5
2015-Jul-03 14:33N 55°38' E 015°16'1818.5
2015-Jul-03 13:34N 55°42' E 015°48'8018.4
2015-Jul-03 09:11N 56°08' E 018°04'1218.2
2015-Jul-03 08:31N 56°14' E 018°23'20318.3
2015-Jul-02 21:25N 59°09' E 021°35'1517.9
2015-Jul-02 20:34N 59°18' E 021°59'1818.0
2015-Jul-02 19:33N 59°29' E 022°27'1818.1
2015-Jul-02 18:34N 59°35' E 023°00'1818.1
2015-Jul-02 17:33N 59°40' E 023°35'1818.2
2015-Jul-02 16:33N 59°45' E 024°09'2018.0
2015-Jul-02 15:28N 59°50' E 024°47'11 1.2
2015-Jul-02 06:32N 59°53' E 025°08'1614.4
2015-Jul-02 05:25N 59°55' E 025°40'1414.5
2015-Jul-02 04:26N 59°58' E 026°07'1314.6
2015-Jul-02 03:31N 60°02' E 026°33'1515.9
2015-Jul-02 02:33N 60°00' E 027°04'8116.1
2015-Jul-01 21:31N 59°59' E 029°46'1110.9
2015-Jul-01 20:33N 59°57' E 030°07'2 1.9
2015-Jul-01 19:32N 59°57' E 030°11'0 0.0
2015-Jul-01 18:31N 59°57' E 030°11'0 0.0
2015-Jul-01 17:31N 59°57' E 030°11'0 0.0
2015-Jul-01 16:31N 59°57' E 030°11'0 0.0
2015-Jul-01 15:33N 59°57' E 030°11'0 0.0
2015-Jul-01 14:33N 59°57' E 030°11'0 0.0
2015-Jul-01 13:32N 59°57' E 030°11'0 0.0
2015-Jul-01 12:29N 59°57' E 030°11'0 0.0
2015-Jul-01 11:31N 59°57' E 030°11'0 0.0
2015-Jul-01 10:28N 59°57' E 030°11'0 0.0
2015-Jul-01 09:27N 59°57' E 030°11'0 0.0
2015-Jul-01 08:33N 59°57' E 030°11'0 0.0
2015-Jul-01 07:33N 59°57' E 030°11'0 0.0
2015-Jul-01 06:32N 59°57' E 030°11'0 0.0
2015-Jul-01 05:32N 59°57' E 030°11'0 0.0
2015-Jul-01 04:31N 59°57' E 030°11'2 1.6
2015-Jul-01 03:33N 59°57' E 030°08'1110.8
2015-Jul-01 02:33N 59°58' E 029°46'7412.2
2015-Jun-30 20:31N 60°03' E 027°19'1712.4
2015-Jun-30 19:10N 59°59' E 026°47'6213.2
2015-Jun-30 14:30N 59°42' E 024°49'1211.9
2015-Jun-30 13:31N 59°30' E 024°45'3 0.5
2015-Jun-30 06:06N 59°27' E 024°46'1910.6
2015-Jun-30 04:17N 59°29' E 024°08'1114.3
2015-Jun-30 03:33N 59°27' E 023°48'1514.2
2015-Jun-30 02:31N 59°24' E 023°19'6616.7
2015-Jun-29 22:33N 59°24' E 021°09'93 5.8
2015-Jun-29 06:30N 59°21' E 018°08'112 7.0
2015-Jun-28 14:33N 57°29' E 017°50'1515.7
2015-Jun-28 13:33N 57°15' E 017°39'12315.4
2015-Jun-28 05:33N 55°37' E 015°25'1918.9
2015-Jun-28 04:33N 55°28' E 014°55'1818.5
2015-Jun-28 03:33N 55°17' E 014°30'1918.6
2015-Jun-28 02:33N 55°02' E 014°10'7317.9
2015-Jun-27 22:30N 54°31' E 012°16'1515.4
2015-Jun-27 21:33N 54°25' E 011°53'1717.3
2015-Jun-27 20:33N 54°31' E 011°26'1716.5
2015-Jun-27 19:32N 54°35' E 010°58'1716.6
2015-Jun-27 18:30N 54°32' E 010°29'1313.6
2015-Jun-27 17:33N 54°24' E 010°12'4 3.5
2015-Jun-27 16:33N 54°20' E 010°10'0 0.0
2015-Jun-27 15:32N 54°20' E 010°10'0 0.0
2015-Jun-27 14:32N 54°20' E 010°10'0 0.0
2015-Jun-27 13:32N 54°20' E 010°10'0 0.0
2015-Jun-27 12:28N 54°20' E 010°10'0 0.0
2015-Jun-27 11:31N 54°20' E 010°10'0 0.0
2015-Jun-27 10:33N 54°20' E 010°10'0 0.0
2015-Jun-27 09:33N 54°20' E 010°10'0 0.0
2015-Jun-27 08:32N 54°20' E 010°10'0 0.0
2015-Jun-27 07:32N 54°20' E 010°10'0 0.0
2015-Jun-27 06:32N 54°20' E 010°10'0 0.0
2015-Jun-27 05:31N 54°20' E 010°10'0 0.2
2015-Jun-27 04:33N 54°20' E 010°10'8 8.4
2015-Jun-27 03:34N 54°28' E 010°15'1211.6
2015-Jun-27 02:33N 54°34' E 010°33'1312.7
2015-Jun-27 01:32N 54°42' E 010°51'1312.4
2015-Jun-27 00:27N 54°55' E 010°53'1111.9
2015-Jun-26 23:33N 55°05' E 011°02'8311.5
2015-Jun-26 16:20N 56°26' E 011°32'1012.8
2015-Jun-26 15:33N 56°34' E 011°41'1212.2
2015-Jun-26 14:33N 56°45' E 011°52'1313.3
2015-Jun-26 13:33N 56°58' E 011°44'1313.3
2015-Jun-26 12:33N 57°10' E 011°36'1313.4
2015-Jun-26 11:33N 57°23' E 011°27'1312.7
2015-Jun-26 10:33N 57°33' E 011°13'1313.3
2015-Jun-26 09:33N 57°42' E 010°55'1312.9
2015-Jun-26 08:33N 57°47' E 010°33'  
Track history (hours):
 
Tides and Currents Weather Stations Pressure Air Temp Water Temp Dewpoint Dewpoint Depression Visibility Wind Speed Wind Dir Waves Ship Positions

MSC Orchestra

Last reported at 2015-Jul-05 21:32 UTC. Time now 2015-Jul-06 11:19 UTC.
Position N 59°11' E 004°11'.

Length 294 m; draft 7.7 m.

Type: Ship. MMSI: 372497000.

Date/timePositionNaut miles runAvg speedWind from/ knotsBaromVisibWave heightAir tempDewpointWater temp
2015-Jul-05 21:32N 59°11' E 004°11'1414.7
2015-Jul-05 20:33N 58°57' E 004°16'1615.6
2015-Jul-05 19:33N 58°46' E 004°37'1615.7
2015-Jul-05 18:33N 58°35' E 004°58'1717.3
2015-Jul-05 17:33N 58°22' E 005°21'1818.0
2015-Jul-05 16:33N 58°10' E 005°47'1818.1
2015-Jul-05 15:33N 57°58' E 006°13'10717.3
2015-Jul-05 09:23N 57°48' E 009°33'1517.5
2015-Jul-05 08:33N 57°48' E 010°00'1818.2
2015-Jul-05 07:33N 57°49' E 010°34'1817.5
2015-Jul-05 06:33N 57°40' E 011°02'1918.7
2015-Jul-05 05:33N 57°27' E 011°27'1918.7
2015-Jul-05 04:34N 57°09' E 011°38'1818.4
2015-Jul-05 03:33N 56°52' E 011°50'1716.7
2015-Jul-05 02:33N 56°36' E 011°43'1818.2
2015-Jul-05 01:34N 56°20' E 011°26'1817.8
2015-Jul-05 00:33N 56°05' E 011°08'1818.1
2015-Jul-04 23:34N 55°50' E 010°50'1818.0
2015-Jul-04 22:33N 55°32' E 010°52'1818.2
2015-Jul-04 21:34N 55°16' E 011°05'1817.6
2015-Jul-04 20:34N 54°58' E 011°00'1717.1
2015-Jul-04 19:33N 54°42' E 010°53'1716.7
2015-Jul-04 18:33N 54°32' E 010°29'1312.8
2015-Jul-04 17:33N 54°24' E 010°12'4 3.9
2015-Jul-04 16:31N 54°20' E 010°10'0 0.0
2015-Jul-04 15:31N 54°20' E 010°10'0 0.0
2015-Jul-04 14:33N 54°20' E 010°10'0 0.0
2015-Jul-04 13:33N 54°20' E 010°10'0 0.0
2015-Jul-04 12:32N 54°20' E 010°10'0 0.0
2015-Jul-04 11:32N 54°20' E 010°10'0 0.0
2015-Jul-04 10:31N 54°20' E 010°10'0 0.0
2015-Jul-04 09:31N 54°20' E 010°10'0 0.0
2015-Jul-04 08:33N 54°20' E 010°10'0 0.0
2015-Jul-04 07:33N 54°20' E 010°10'0 0.0
2015-Jul-04 06:33N 54°20' E 010°10'0 0.0
2015-Jul-04 05:32N 54°20' E 010°10'0 0.0
2015-Jul-04 04:34N 54°20' E 010°10'8 8.4
2015-Jul-04 03:33N 54°28' E 010°15'1414.4
2015-Jul-04 02:33N 54°34' E 010°38'1515.1
2015-Jul-04 01:33N 54°36' E 011°04'1514.8
2015-Jul-04 00:33N 54°31' E 011°27'1515.2
2015-Jul-03 23:33N 54°26' E 011°52'1312.9
2015-Jul-03 22:33N 54°31' E 012°12'1414.1
2015-Jul-03 21:33N 54°42' E 012°28'1514.9
2015-Jul-03 20:33N 54°49' E 012°51'1515.0
2015-Jul-03 19:33N 54°54' E 013°15'1515.0
2015-Jul-03 18:33N 54°59' E 013°40'1514.8
2015-Jul-03 17:33N 55°04' E 014°04'1716.7
2015-Jul-03 16:34N 55°17' E 014°22'1918.5
2015-Jul-03 15:33N 55°30' E 014°47'1818.5
2015-Jul-03 14:33N 55°38' E 015°16'1818.5
2015-Jul-03 13:34N 55°42' E 015°48'8018.4
2015-Jul-03 09:11N 56°08' E 018°04'1218.2
2015-Jul-03 08:31N 56°14' E 018°23'20318.3
2015-Jul-02 21:25N 59°09' E 021°35'1517.9
2015-Jul-02 20:34N 59°18' E 021°59'1818.0
2015-Jul-02 19:33N 59°29' E 022°27'1818.1
2015-Jul-02 18:34N 59°35' E 023°00'1818.1
2015-Jul-02 17:33N 59°40' E 023°35'1818.2
2015-Jul-02 16:33N 59°45' E 024°09'2018.0
2015-Jul-02 15:28N 59°50' E 024°47'11 1.2
2015-Jul-02 06:32N 59°53' E 025°08'1614.4
2015-Jul-02 05:25N 59°55' E 025°40'1414.5
2015-Jul-02 04:26N 59°58' E 026°07'1314.6
2015-Jul-02 03:31N 60°02' E 026°33'1515.9
2015-Jul-02 02:33N 60°00' E 027°04'8116.1
2015-Jul-01 21:31N 59°59' E 029°46'1110.9
2015-Jul-01 20:33N 59°57' E 030°07'2 1.9
2015-Jul-01 19:32N 59°57' E 030°11'0 0.0
2015-Jul-01 18:31N 59°57' E 030°11'0 0.0
2015-Jul-01 17:31N 59°57' E 030°11'0 0.0
2015-Jul-01 16:31N 59°57' E 030°11'0 0.0
2015-Jul-01 15:33N 59°57' E 030°11'0 0.0
2015-Jul-01 14:33N 59°57' E 030°11'0 0.0
2015-Jul-01 13:32N 59°57' E 030°11'0 0.0
2015-Jul-01 12:29N 59°57' E 030°11'0 0.0
2015-Jul-01 11:31N 59°57' E 030°11'0 0.0
2015-Jul-01 10:28N 59°57' E 030°11'0 0.0
2015-Jul-01 09:27N 59°57' E 030°11'0 0.0
2015-Jul-01 08:33N 59°57' E 030°11'0 0.0
2015-Jul-01 07:33N 59°57' E 030°11'0 0.0
2015-Jul-01 06:32N 59°57' E 030°11'0 0.0
2015-Jul-01 05:32N 59°57' E 030°11'0 0.0
2015-Jul-01 04:31N 59°57' E 030°11'2 1.6
2015-Jul-01 03:33N 59°57' E 030°08'1110.8
2015-Jul-01 02:33N 59°58' E 029°46'7412.2
2015-Jun-30 20:31N 60°03' E 027°19'1712.4
2015-Jun-30 19:10N 59°59' E 026°47'6213.2
2015-Jun-30 14:30N 59°42' E 024°49'1211.9
2015-Jun-30 13:31N 59°30' E 024°45'3 0.5
2015-Jun-30 06:06N 59°27' E 024°46'1910.6
2015-Jun-30 04:17N 59°29' E 024°08'1114.3
2015-Jun-30 03:33N 59°27' E 023°48'1514.2
2015-Jun-30 02:31N 59°24' E 023°19'6616.7
2015-Jun-29 22:33N 59°24' E 021°09'93 5.8
2015-Jun-29 06:30N 59°21' E 018°08'112 7.0
2015-Jun-28 14:33N 57°29' E 017°50'1515.7
2015-Jun-28 13:33N 57°15' E 017°39'12315.4
2015-Jun-28 05:33N 55°37' E 015°25'1918.9
2015-Jun-28 04:33N 55°28' E 014°55'1818.5
2015-Jun-28 03:33N 55°17' E 014°30'1918.6
2015-Jun-28 02:33N 55°02' E 014°10'7317.9
2015-Jun-27 22:30N 54°31' E 012°16'1515.4
2015-Jun-27 21:33N 54°25' E 011°53'1717.3
2015-Jun-27 20:33N 54°31' E 011°26'1716.5
2015-Jun-27 19:32N 54°35' E 010°58'1716.6
2015-Jun-27 18:30N 54°32' E 010°29'1313.6
2015-Jun-27 17:33N 54°24' E 010°12'4 3.5
2015-Jun-27 16:33N 54°20' E 010°10'0 0.0
2015-Jun-27 15:32N 54°20' E 010°10'0 0.0
2015-Jun-27 14:32N 54°20' E 010°10'0 0.0
2015-Jun-27 13:32N 54°20' E 010°10'0 0.0
2015-Jun-27 12:28N 54°20' E 010°10'0 0.0
2015-Jun-27 11:31N 54°20' E 010°10'0 0.0
2015-Jun-27 10:33N 54°20' E 010°10'0 0.0
2015-Jun-27 09:33N 54°20' E 010°10'0 0.0
2015-Jun-27 08:32N 54°20' E 010°10'0 0.0
2015-Jun-27 07:32N 54°20' E 010°10'0 0.0
2015-Jun-27 06:32N 54°20' E 010°10'0 0.0
2015-Jun-27 05:31N 54°20' E 010°10'0 0.2
2015-Jun-27 04:33N 54°20' E 010°10'8 8.4
2015-Jun-27 03:34N 54°28' E 010°15'1211.6
2015-Jun-27 02:33N 54°34' E 010°33'1312.7
2015-Jun-27 01:32N 54°42' E 010°51'1312.4
2015-Jun-27 00:27N 54°55' E 010°53'1111.9
2015-Jun-26 23:33N 55°05' E 011°02'8311.5
2015-Jun-26 16:20N 56°26' E 011°32'1012.8
2015-Jun-26 15:33N 56°34' E 011°41'1212.2
2015-Jun-26 14:33N 56°45' E 011°52'1313.3
2015-Jun-26 13:33N 56°58' E 011°44'1313.3
2015-Jun-26 12:33N 57°10' E 011°36'1313.4
2015-Jun-26 11:33N 57°23' E 011°27'1312.7
2015-Jun-26 10:33N 57°33' E 011°13'1313.3
2015-Jun-26 09:33N 57°42' E 010°55'1312.9
2015-Jun-26 08:33N 57°47' E 010°33'  

Dump ship's entire track history